Time;durP1;ratioP1;P1;durP2;ratioP2;P2;SDS_P1;SDS_P2;PMS_P1;PMS_P2;Temp;Humidity;BMP_temperature;BMP_pressure;BME280_temperature;BME280_humidity;BME280_pressure;Samples;Min_cycle;Max_cycle;Signal;HPM_P1;HPM_P2
2020/12/26 00:00:21;;;;;;;6.53;2.90;;;-0.50;99.90;;;;;;5073508;28;20085;-78
2020/12/26 00:02:47;;;;;;;13.15;3.80;;;-0.50;99.90;;;;;;5072577;28;20017;-79
2020/12/26 00:05:13;;;;;;;9.25;3.92;;;-0.50;99.90;;;;;;5073141;28;20056;-78
2020/12/26 00:07:38;;;;;;;16.80;3.97;;;-0.50;99.90;;;;;;5072024;28;20150;-78
2020/12/26 00:10:05;;;;;;;9.65;4.95;;;-0.60;99.90;;;;;;5071960;28;20476;-78
2020/12/26 00:12:30;;;;;;;9.95;3.80;;;-0.60;99.90;;;;;;5073231;28;20033;-78
2020/12/26 00:14:56;;;;;;;16.33;4.30;;;-0.60;99.90;;;;;;5073019;28;20027;-78
2020/12/26 00:17:23;;;;;;;10.10;4.30;;;-0.60;99.90;;;;;;5073041;28;20032;-78
2020/12/26 00:19:48;;;;;;;9.30;4.32;;;-0.60;99.90;;;;;;5073107;28;20020;-78
2020/12/26 00:22:14;;;;;;;6.15;3.70;;;-0.60;99.90;;;;;;5071830;28;20023;-78
2020/12/26 00:24:39;;;;;;;6.55;3.80;;;-0.70;99.90;;;;;;5072826;28;20528;-78
2020/12/26 00:27:05;;;;;;;8.25;4.50;;;-0.60;99.90;;;;;;5071577;28;20119;-78
2020/12/26 00:29:31;;;;;;;11.40;4.40;;;-0.60;99.90;;;;;;5071553;28;20032;-78
2020/12/26 00:31:56;;;;;;;16.55;4.22;;;-0.60;99.90;;;;;;5071668;28;20055;-78
2020/12/26 00:34:22;;;;;;;8.40;3.78;;;-0.60;99.90;;;;;;5071373;28;20024;-78
2020/12/26 00:36:47;;;;;;;9.43;4.25;;;-0.60;99.90;;;;;;5071301;28;20032;-78
2020/12/26 00:39:13;;;;;;;8.45;4.30;;;-0.50;99.90;;;;;;5070475;28;20025;-78
2020/12/26 00:41:39;;;;;;;8.68;3.90;;;-0.60;99.90;;;;;;5051168;28;20024;-78
2020/12/26 00:44:04;;;;;;;12.80;4.30;;;-0.60;99.90;;;;;;5052532;28;20021;-78
2020/12/26 00:46:30;;;;;;;10.98;3.90;;;-0.60;99.90;;;;;;5051429;28;20500;-78
2020/12/26 00:48:55;;;;;;;11.38;3.65;;;-0.70;99.90;;;;;;5051172;28;20112;-78
2020/12/26 00:51:21;;;;;;;9.88;3.20;;;-0.70;99.90;;;;;;5052576;28;20021;-78
2020/12/26 00:53:46;;;;;;;9.10;3.38;;;-0.80;99.90;;;;;;5052344;28;20155;-78
2020/12/26 00:56:12;;;;;;;8.57;3.53;;;-0.70;99.90;;;;;;5051212;28;20025;-78
2020/12/26 00:58:38;;;;;;;9.20;4.53;;;-0.80;99.90;;;;;;5052305;28;20540;-78
2020/12/26 01:01:03;;;;;;;8.10;3.70;;;-0.80;99.90;;;;;;5052379;28;20108;-78
2020/12/26 01:03:29;;;;;;;13.40;3.08;;;-0.90;99.90;;;;;;5052463;28;20028;-78
2020/12/26 01:05:55;;;;;;;8.77;3.50;;;-0.90;99.90;;;;;;5052093;28;20071;-78
2020/12/26 01:08:20;;;;;;;14.07;4.15;;;-0.90;99.90;;;;;;5050955;28;20392;-78
2020/12/26 01:10:46;;;;;;;13.38;4.20;;;-0.90;99.90;;;;;;5051026;28;20028;-78
2020/12/26 01:13:12;;;;;;;5.75;3.45;;;-0.90;99.90;;;;;;5052094;28;20111;-78
2020/12/26 01:15:38;;;;;;;10.23;3.75;;;-0.90;99.90;;;;;;5050573;28;20115;-78
2020/12/26 01:18:03;;;;;;;6.13;3.50;;;-1.00;99.90;;;;;;5051968;28;20029;-78
2020/12/26 01:20:29;;;;;;;7.55;3.60;;;-1.00;99.90;;;;;;5050948;28;20021;-78
2020/12/26 01:22:55;;;;;;;8.65;3.78;;;-1.00;99.90;;;;;;5051896;28;20086;-79
2020/12/26 01:25:20;;;;;;;10.18;3.47;;;-1.00;99.90;;;;;;5051813;28;20485;-78
2020/12/26 01:27:46;;;;;;;7.88;3.72;;;-1.00;99.90;;;;;;5050643;28;20469;-78
2020/12/26 01:30:12;;;;;;;16.48;3.95;;;-1.00;99.90;;;;;;5051938;28;20021;-79
2020/12/26 01:32:38;;;;;;;6.28;3.40;;;-0.90;99.90;;;;;;5052002;28;20017;-78
2020/12/26 01:35:04;;;;;;;8.73;3.78;;;-0.90;99.90;;;;;;5051684;28;20408;-78
2020/12/26 01:37:29;;;;;;;6.65;3.65;;;-0.90;99.90;;;;;;5051768;28;20017;-78
2020/12/26 01:39:55;;;;;;;9.15;4.28;;;-0.80;99.90;;;;;;5059831;28;20431;-78
2020/12/26 01:42:21;;;;;;;6.55;3.70;;;-0.80;99.90;;;;;;5071835;28;20021;-78
2020/12/26 01:44:46;;;;;;;8.68;3.15;;;-0.70;99.90;;;;;;5070617;28;20025;-78
2020/12/26 01:47:14;;;;;;;9.40;3.78;;;-0.60;99.90;;;;;;5071681;28;20036;-78
2020/12/26 01:49:40;;;;;;;8.55;3.53;;;-0.60;99.90;;;;;;5071954;28;20554;-79
2020/12/26 01:52:09;;;;;;;7.65;3.55;;;-0.60;99.90;;;;;;5070873;28;20032;-78
2020/12/26 01:54:34;;;;;;;7.72;3.80;;;-0.50;99.90;;;;;;5071585;28;20050;-78
2020/12/26 01:57:00;;;;;;;10.00;4.07;;;-0.50;99.90;;;;;;5071892;28;20036;-79
2020/12/26 01:59:28;;;;;;;7.88;3.38;;;-0.50;99.90;;;;;;5071975;28;20031;-79
2020/12/26 02:01:57;;;;;;;7.65;3.47;;;-0.50;99.90;;;;;;5071070;28;20029;-77
2020/12/26 02:04:23;;;;;;;5.72;3.63;;;-0.50;99.90;;;;;;5071622;28;20044;-78
2020/12/26 02:06:52;;;;;;;7.57;3.47;;;-0.50;99.90;;;;;;5071687;28;20437;-78
2020/12/26 02:09:18;;;;;;;6.47;3.13;;;-0.40;99.90;;;;;;5071743;28;20027;-78
2020/12/26 02:11:44;;;;;;;14.68;3.63;;;-0.40;99.90;;;;;;5070067;28;20396;-78
2020/12/26 02:14:09;;;;;;;8.68;3.70;;;-0.40;99.90;;;;;;5070165;28;20055;-79
2020/12/26 02:16:49;;;;;;;8.45;4.15;;;-0.40;99.90;;;;;;5071341;28;20438;-78
2020/12/26 02:19:17;;;;;;;8.98;3.40;;;-0.30;99.90;;;;;;5070116;28;20493;-78
2020/12/26 02:21:43;;;;;;;10.18;3.55;;;-0.20;99.90;;;;;;5071514;28;20035;-78
2020/12/26 02:24:09;;;;;;;9.40;3.55;;;-0.20;99.90;;;;;;5071167;28;20024;-78
2020/12/26 02:26:35;;;;;;;6.30;3.65;;;-0.20;99.90;;;;;;5072792;28;20085;-78
2020/12/26 02:29:01;;;;;;;10.00;3.92;;;-0.10;99.90;;;;;;5073520;28;20119;-78
2020/12/26 02:31:27;;;;;;;10.38;3.17;;;-0.10;99.90;;;;;;5075018;28;20028;-78
2020/12/26 02:33:52;;;;;;;9.25;3.55;;;0.00;99.90;;;;;;5073768;28;20119;-78
2020/12/26 02:36:18;;;;;;;6.20;3.80;;;0.00;99.90;;;;;;5074974;28;20044;-78
2020/12/26 02:38:44;;;;;;;14.50;4.03;;;0.10;99.90;;;;;;5074851;28;20039;-78
2020/12/26 02:41:10;;;;;;;9.25;3.80;;;0.10;99.90;;;;;;5055454;28;20028;-78
2020/12/26 02:43:35;;;;;;;7.70;3.58;;;0.10;99.90;;;;;;5054899;28;20393;-79
2020/12/26 02:46:01;;;;;;;4.18;2.67;;;0.10;99.90;;;;;;5053537;28;20075;-79
2020/12/26 02:48:27;;;;;;;8.02;2.90;;;0.10;99.90;;;;;;5053605;28;20025;-78
2020/12/26 02:50:54;;;;;;;8.45;3.20;;;0.20;99.90;;;;;;5053575;28;20032;-78
2020/12/26 02:53:19;;;;;;;5.85;3.20;;;0.10;99.90;;;;;;5054643;28;20373;-79
2020/12/26 02:55:45;;;;;;;12.10;3.22;;;0.10;99.90;;;;;;5053251;28;20021;-78
2020/12/26 02:58:10;;;;;;;9.07;3.30;;;0.10;99.90;;;;;;5054683;28;20412;-78
2020/12/26 03:00:36;;;;;;;5.03;2.90;;;0.10;99.90;;;;;;5053566;28;20507;-78
2020/12/26 03:03:01;;;;;;;7.13;2.97;;;0.20;99.90;;;;;;5053390;28;20028;-78
2020/12/26 03:05:27;;;;;;;14.88;3.20;;;0.20;99.90;;;;;;5053046;28;20368;-78
2020/12/26 03:07:53;;;;;;;8.63;2.80;;;0.30;99.90;;;;;;5054389;28;20036;-78
2020/12/26 03:10:19;;;;;;;7.35;2.40;;;0.30;99.90;;;;;;5052721;28;20040;-78
2020/12/26 03:12:44;;;;;;;5.65;2.58;;;0.40;99.90;;;;;;5053400;28;20032;-78
2020/12/26 03:15:10;;;;;;;5.10;3.10;;;0.40;99.90;;;;;;5053925;28;20029;-78
2020/12/26 03:17:37;;;;;;;6.18;2.50;;;0.40;99.90;;;;;;5054236;28;20029;-79
2020/12/26 03:20:04;;;;;;;10.65;2.65;;;0.40;99.90;;;;;;5054299;28;20029;-78
2020/12/26 03:22:30;;;;;;;10.93;2.95;;;0.40;99.90;;;;;;5052923;28;20021;-78
2020/12/26 03:24:56;;;;;;;7.90;2.50;;;0.50;99.90;;;;;;5052733;28;20405;-79
2020/12/26 03:27:23;;;;;;;3.70;2.40;;;0.50;99.90;;;;;;5054093;28;20035;-78
2020/12/26 03:29:50;;;;;;;4.28;2.40;;;0.50;99.90;;;;;;5054037;28;20397;-78
2020/12/26 03:32:15;;;;;;;6.00;1.98;;;0.60;99.90;;;;;;5052816;28;20045;-79
2020/12/26 03:34:41;;;;;;;10.15;2.20;;;0.60;99.90;;;;;;5053917;28;20571;-78
2020/12/26 03:37:07;;;;;;;5.03;2.35;;;0.60;99.90;;;;;;5052398;28;20029;-78
2020/12/26 03:39:35;;;;;;;6.55;2.10;;;0.60;99.90;;;;;;5052642;28;20120;-78
2020/12/26 03:42:09;;;;;;;8.63;2.50;;;0.70;99.90;;;;;;5053889;28;20017;-78
2020/12/26 03:44:35;;;;;;;4.25;1.88;;;0.70;99.90;;;;;;5069243;28;20029;-78
2020/12/26 03:47:03;;;;;;;5.05;2.15;;;0.70;99.90;;;;;;5053784;28;20112;-79
2020/12/26 03:49:29;;;;;;;9.07;2.05;;;0.70;99.90;;;;;;5053782;28;20028;-79
2020/12/26 03:51:55;;;;;;;2.78;1.77;;;0.70;99.90;;;;;;5053608;28;20454;-78
2020/12/26 03:54:20;;;;;;;4.82;2.17;;;0.60;99.90;;;;;;5053503;28;20028;-78
2020/12/26 03:56:46;;;;;;;3.58;2.08;;;0.60;99.90;;;;;;5053604;28;20057;-79
2020/12/26 03:59:12;;;;;;;3.15;1.75;;;0.50;99.90;;;;;;5069016;28;20028;-78
2020/12/26 04:01:37;;;;;;;6.55;1.60;;;0.50;99.90;;;;;;5053649;28;20056;-78
2020/12/26 04:04:04;;;;;;;5.28;1.77;;;0.40;99.90;;;;;;5068561;28;20033;-78
2020/12/26 04:06:30;;;;;;;4.95;2.45;;;0.40;99.90;;;;;;5053529;28;20060;-78
2020/12/26 04:08:56;;;;;;;10.02;2.17;;;0.30;99.90;;;;;;5068850;28;20397;-78
2020/12/26 04:11:22;;;;;;;4.38;1.77;;;0.30;99.90;;;;;;5053390;28;20025;-78
2020/12/26 04:13:48;;;;;;;7.05;2.28;;;0.30;99.90;;;;;;5068545;28;20401;-78
2020/12/26 04:16:14;;;;;;;6.07;3.58;;;0.30;99.90;;;;;;5053272;28;20033;-79
2020/12/26 04:18:40;;;;;;;7.43;1.63;;;0.40;99.90;;;;;;5068643;28;20021;-79
2020/12/26 04:21:06;;;;;;;7.38;2.50;;;0.50;99.90;;;;;;5053246;28;20446;-79
2020/12/26 04:23:32;;;;;;;6.35;1.63;;;0.60;99.90;;;;;;5068859;28;20064;-79
2020/12/26 04:25:58;;;;;;;11.23;1.88;;;0.60;99.90;;;;;;5053006;28;20021;-79
2020/12/26 04:28:24;;;;;;;13.02;1.75;;;0.60;99.90;;;;;;5053218;28;20033;-78
2020/12/26 04:30:50;;;;;;;12.68;2.08;;;0.60;99.90;;;;;;5068681;28;20111;-79
2020/12/26 04:33:15;;;;;;;3.92;1.83;;;0.60;99.90;;;;;;5053461;28;20436;-77
2020/12/26 04:35:41;;;;;;;3.85;1.67;;;0.60;99.90;;;;;;5052995;28;20029;-79
2020/12/26 04:38:07;;;;;;;12.52;1.80;;;0.70;99.90;;;;;;5068468;28;20025;-78
2020/12/26 04:40:36;;;;;;;10.43;1.50;;;0.70;99.90;;;;;;5058285;28;20120;-79
2020/12/26 04:43:02;;;;;;;8.48;1.55;;;0.70;99.90;;;;;;5051547;28;20021;-79
2020/12/26 04:45:29;;;;;;;5.20;2.00;;;0.80;99.90;;;;;;5052519;28;20476;-79
2020/12/26 04:48:01;;;;;;;2.20;1.70;;;0.90;99.90;;;;;;5050962;28;20029;-78
2020/12/26 04:50:32;;;;;;;7.78;1.67;;;0.90;99.90;;;;;;5052552;28;20025;-79
2020/12/26 04:53:01;;;;;;;8.25;1.20;;;0.90;99.90;;;;;;5052437;28;20031;-79
2020/12/26 04:55:28;;;;;;;6.68;1.88;;;0.90;99.90;;;;;;5050989;28;20025;-79
2020/12/26 04:58:15;;;;;;;11.07;1.48;;;1.00;99.90;;;;;;5051160;28;20029;-79
2020/12/26 05:00:41;;;;;;;6.72;1.35;;;1.00;99.90;;;;;;5051168;28;20056;-79
2020/12/26 05:03:11;;;;;;;5.68;1.15;;;1.10;99.90;;;;;;5051166;28;20393;-78
2020/12/26 05:05:39;;;;;;;4.97;1.25;;;1.20;99.90;;;;;;5052117;28;20492;-78
2020/12/26 05:08:06;;;;;;;5.93;1.25;;;1.20;99.90;;;;;;5052167;28;20444;-78
2020/12/26 05:10:32;;;;;;;8.93;1.35;;;1.30;99.90;;;;;;5052331;28;20396;-79
2020/12/26 05:12:59;;;;;;;6.60;1.20;;;1.30;99.90;;;;;;5052176;28;20021;-79
2020/12/26 05:15:26;;;;;;;8.90;1.63;;;1.30;99.90;;;;;;5050668;28;20021;-79
2020/12/26 05:17:52;;;;;;;7.40;2.08;;;1.30;99.90;;;;;;5050628;28;20112;-79
2020/12/26 05:20:18;;;;;;;8.60;1.60;;;1.30;99.90;;;;;;5050769;28;20124;-78
2020/12/26 05:22:43;;;;;;;7.97;1.42;;;1.40;99.90;;;;;;5052173;28;20027;-78
2020/12/26 05:25:10;;;;;;;4.43;1.30;;;1.40;99.90;;;;;;5051917;28;20021;-79
2020/12/26 05:27:36;;;;;;;8.10;2.00;;;1.40;99.90;;;;;;5050704;28;20025;-79
2020/12/26 05:30:06;;;;;;;9.77;2.13;;;1.40;99.90;;;;;;5050774;28;20025;-79
2020/12/26 05:32:32;;;;;;;12.07;3.08;;;1.50;99.90;;;;;;5051788;28;20435;-78
2020/12/26 05:35:08;;;;;;;13.63;3.20;;;1.50;99.90;;;;;;5059078;28;20028;-78
2020/12/26 05:37:35;;;;;;;7.43;2.83;;;1.60;99.90;;;;;;5071655;28;20484;-79
2020/12/26 05:40:02;;;;;;;6.38;3.30;;;1.60;99.90;;;;;;5061852;28;20115;-78
2020/12/26 05:42:29;;;;;;;7.25;2.83;;;1.60;99.90;;;;;;5051703;28;20029;-78
2020/12/26 05:45:05;;;;;;;5.55;2.78;;;1.60;99.90;;;;;;5051623;28;20021;-79
2020/12/26 05:47:31;;;;;;;9.05;2.90;;;1.70;99.90;;;;;;5050449;28;20027;-79
2020/12/26 05:49:57;;;;;;;8.45;3.28;;;1.60;99.90;;;;;;5050546;28;20025;-79
2020/12/26 05:52:27;;;;;;;18.10;2.63;;;1.70;99.90;;;;;;5051698;28;20075;-79
2020/12/26 05:54:53;;;;;;;12.80;2.88;;;1.70;99.90;;;;;;5051572;28;20416;-79
2020/12/26 05:57:19;;;;;;;11.73;3.40;;;1.70;99.90;;;;;;5050326;28;20025;-79
2020/12/26 05:59:47;;;;;;;3.70;2.55;;;1.70;99.90;;;;;;5050305;28;20028;-79
2020/12/26 06:02:41;;;;;;;10.68;2.40;;;1.80;99.90;;;;;;5055571;28;20382;-78
2020/12/26 06:05:07;;;;;;;9.07;2.00;;;1.90;99.90;;;;;;5049825;28;20064;-78
2020/12/26 06:07:37;;;;;;;7.80;2.30;;;1.80;99.90;;;;;;5055642;28;20063;-78
2020/12/26 06:10:07;;;;;;;8.55;2.60;;;1.90;99.90;;;;;;5054428;28;20119;-79
2020/12/26 06:12:33;;;;;;;11.82;2.55;;;1.90;99.90;;;;;;5055544;28;20423;-79
2020/12/26 06:14:59;;;;;;;9.98;2.55;;;2.00;99.90;;;;;;5054145;28;20116;-79
2020/12/26 06:17:30;;;;;;;9.68;2.17;;;2.00;99.90;;;;;;5055358;28;20091;-78
2020/12/26 06:20:00;;;;;;;13.60;2.67;;;2.00;99.90;;;;;;5055518;28;20025;-79
2020/12/26 06:22:40;;;;;;;8.13;2.55;;;2.00;99.90;;;;;;5055357;28;20512;-79
2020/12/26 06:25:10;;;;;;;5.25;2.10;;;2.00;99.90;;;;;;5053892;28;20028;-79
2020/12/26 06:27:43;;;;;;;8.95;2.88;;;2.00;99.90;;;;;;5053987;28;20071;-79
2020/12/26 06:30:08;;;;;;;6.40;3.20;;;2.00;99.90;;;;;;5054059;28;20025;-79
2020/12/26 06:32:34;;;;;;;10.25;3.42;;;2.00;99.90;;;;;;5055156;28;20033;-79
2020/12/26 06:35:00;;;;;;;9.02;3.08;;;2.00;99.90;;;;;;5053630;28;20535;-79
2020/12/26 06:37:26;;;;;;;13.70;2.67;;;2.00;99.90;;;;;;5055074;28;20051;-79
2020/12/26 06:39:51;;;;;;;10.50;2.78;;;2.10;99.90;;;;;;5055035;28;20025;-79
2020/12/26 06:42:19;;;;;;;18.40;3.22;;;2.10;99.90;;;;;;5055002;28;20032;-79
2020/12/26 06:44:46;;;;;;;11.57;2.58;;;2.10;99.90;;;;;;5054773;28;20083;-80
2020/12/26 06:47:34;;;;;;;13.70;2.92;;;2.10;99.90;;;;;;5055025;28;20029;-78
2020/12/26 06:50:20;;;;;;;9.50;3.10;;;2.20;99.90;;;;;;5054983;28;20104;-78
2020/12/26 06:52:45;;;;;;;21.42;2.28;;;2.30;99.90;;;;;;5054690;28;20033;-78
2020/12/26 06:55:41;;;;;;;21.42;2.63;;;2.40;99.90;;;;;;5054645;28;20099;-79
2020/12/26 06:58:31;;;;;;;10.98;1.90;;;2.40;99.90;;;;;;5054708;28;20616;-79
2020/12/26 07:00:57;;;;;;;13.18;2.00;;;2.40;99.90;;;;;;5049638;28;20106;-80
2020/12/26 07:03:24;;;;;;;22.17;3.47;;;2.50;99.90;;;;;;5054727;28;20025;-79
2020/12/26 07:05:52;;;;;;;21.92;2.40;;;2.50;99.90;;;;;;5054465;28;20021;-79
2020/12/26 07:08:35;;;;;;;15.05;1.98;;;2.50;99.90;;;;;;5053175;28;20120;-79
2020/12/26 07:11:03;;;;;;;26.88;2.78;;;2.60;99.90;;;;;;5054224;28;20067;-79
2020/12/26 07:13:45;;;;;;;20.15;2.95;;;2.60;99.90;;;;;;5053226;28;20032;-79
2020/12/26 07:16:38;;;;;;;10.52;2.60;;;2.60;99.90;;;;;;5054360;28;20086;-78
2020/12/26 07:19:19;;;;;;;17.63;2.23;;;2.60;99.90;;;;;;5052873;28;20049;-79
2020/12/26 07:21:53;;;;;;;16.30;2.20;;;2.60;99.90;;;;;;5053049;28;20256;-78
2020/12/26 07:24:32;;;;;;;16.00;1.88;;;2.60;99.90;;;;;;5054157;28;20045;-79
2020/12/26 07:27:24;;;;;;;14.85;3.30;;;2.70;99.90;;;;;;5069498;28;20024;-79
2020/12/26 07:30:06;;;;;;;21.05;3.03;;;2.70;99.90;;;;;;5052858;28;20025;-79
2020/12/26 07:32:45;;;;;;;25.50;3.20;;;2.80;99.90;;;;;;5054153;28;20021;-79
2020/12/26 07:35:16;;;;;;;26.45;2.92;;;2.80;99.90;;;;;;5052660;28;20032;-79
2020/12/26 07:37:43;;;;;;;16.10;1.95;;;2.90;99.90;;;;;;5052589;28;20059;-79
2020/12/26 07:40:09;;;;;;;18.60;3.00;;;3.00;99.90;;;;;;5052590;28;20481;-79
2020/12/26 07:42:35;;;;;;;33.60;3.33;;;3.10;99.90;;;;;;5052610;28;20029;-79
2020/12/26 07:45:15;;;;;;;31.10;2.15;;;3.10;99.90;;;;;;5052335;28;20023;-79
2020/12/26 07:47:43;;;;;;;31.55;3.00;;;3.30;99.90;;;;;;5052560;28;20076;-79
2020/12/26 07:50:10;;;;;;;42.42;3.08;;;3.40;99.90;;;;;;5053700;28;20036;-79
2020/12/26 07:52:36;;;;;;;35.35;4.03;;;3.40;99.90;;;;;;5052478;28;20025;-78
2020/12/26 07:55:03;;;;;;;27.95;3.67;;;3.40;99.90;;;;;;5052246;28;20044;-79
2020/12/26 07:57:29;;;;;;;39.45;3.70;;;3.50;99.90;;;;;;5053519;28;20035;-79
2020/12/26 07:59:55;;;;;;;37.67;4.20;;;3.50;99.90;;;;;;5053593;28;20021;-79
2020/12/26 08:02:21;;;;;;;34.45;4.28;;;3.50;99.90;;;;;;5066968;28;20404;-79
2020/12/26 08:04:48;;;;;;;40.25;4.00;;;3.50;99.90;;;;;;5072940;28;20097;-79
2020/12/26 08:07:15;;;;;;;50.78;3.70;;;3.50;99.90;;;;;;5071802;28;20121;-79
2020/12/26 08:09:52;;;;;;;49.72;4.63;;;3.60;99.90;;;;;;5063324;28;20024;-79
2020/12/26 08:12:18;;;;;;;38.40;3.78;;;3.60;99.90;;;;;;5068451;28;20384;-79
2020/12/26 08:14:44;;;;;;;48.90;5.40;;;3.80;99.90;;;;;;5072958;28;20513;-79
2020/12/26 08:17:10;;;;;;;52.13;6.32;;;3.80;99.90;;;;;;5072643;28;20063;-78
2020/12/26 08:19:37;;;;;;;64.25;4.45;;;3.90;99.90;;;;;;5072959;28;20023;-79
2020/12/26 08:22:02;;;;;;;34.63;4.35;;;4.00;99.90;;;;;;5073012;28;20020;-79
2020/12/26 08:24:28;;;;;;;49.42;5.80;;;4.10;99.90;;;;;;5071972;28;20099;-79
2020/12/26 08:26:55;;;;;;;39.80;5.40;;;4.20;99.90;;;;;;5072879;28;20032;-79
2020/12/26 08:29:26;;;;;;;31.67;3.75;;;4.20;99.90;;;;;;5073005;28;20531;-78
2020/12/26 08:31:58;;;;;;;40.10;4.53;;;4.20;99.90;;;;;;5072052;28;20112;-78
2020/12/26 08:34:38;;;;;;;60.33;3.97;;;4.30;99.90;;;;;;5071383;28;20085;-77
2020/12/26 08:37:11;;;;;;;48.10;5.03;;;4.30;99.90;;;;;;5072585;28;20664;-78
2020/12/26 08:39:40;;;;;;;35.25;4.28;;;4.30;99.90;;;;;;5065782;28;20086;-78
2020/12/26 08:42:12;;;;;;;45.85;4.13;;;4.20;99.90;;;;;;5060871;28;20031;-78
2020/12/26 08:44:37;;;;;;;36.83;3.50;;;4.30;99.90;;;;;;5071009;28;20054;-78
2020/12/26 08:47:06;;;;;;;40.33;4.97;;;4.30;99.90;;;;;;5070688;28;20113;-79
2020/12/26 08:49:32;;;;;;;41.97;5.28;;;4.30;99.90;;;;;;5072480;28;20026;-78
2020/12/26 08:52:00;;;;;;;28.50;3.58;;;4.40;99.90;;;;;;5071166;28;20024;-78
2020/12/26 08:54:25;;;;;;;26.60;3.70;;;4.50;99.90;;;;;;5072273;28;20056;-78
2020/12/26 08:56:51;;;;;;;29.83;3.58;;;4.50;99.90;;;;;;5072083;28;20060;-78
2020/12/26 08:59:29;;;;;;;47.08;6.50;;;4.50;99.90;;;;;;5071055;28;20025;-78
2020/12/26 09:01:58;;;;;;;33.67;3.22;;;4.50;99.90;;;;;;5071408;28;20028;-78
2020/12/26 09:04:27;;;;;;;45.33;4.03;;;4.50;99.90;;;;;;5071850;28;20418;-78
2020/12/26 09:06:53;;;;;;;39.95;4.07;;;4.60;99.90;;;;;;5070848;28;20032;-78
2020/12/26 09:09:20;;;;;;;37.63;4.53;;;4.60;99.90;;;;;;5070696;28;20024;-78
2020/12/26 09:12:01;;;;;;;33.90;4.38;;;4.50;99.90;;;;;;5072133;28;20028;-79
2020/12/26 09:14:26;;;;;;;24.52;3.95;;;4.50;99.90;;;;;;5072017;28;20493;-78
2020/12/26 09:17:02;;;;;;;34.15;4.55;;;4.50;99.90;;;;;;5064179;28;20099;-77
2020/12/26 09:19:42;;;;;;;33.22;5.05;;;4.60;99.90;;;;;;5054972;28;20381;-78
2020/12/26 09:22:08;;;;;;;32.90;5.53;;;4.60;99.90;;;;;;5057379;28;20027;-78
2020/12/26 09:24:34;;;;;;;41.80;6.18;;;4.60;99.90;;;;;;5052861;28;20071;-79
2020/12/26 09:26:59;;;;;;;37.30;5.80;;;4.60;99.90;;;;;;5070828;28;20055;-79
2020/12/26 09:29:25;;;;;;;36.47;5.65;;;4.60;99.90;;;;;;5069617;28;20040;-78
2020/12/26 09:31:52;;;;;;;43.92;6.72;;;4.70;99.90;;;;;;5063806;28;20048;-79
2020/12/26 09:34:19;;;;;;;29.67;6.53;;;4.60;99.90;;;;;;5051477;28;20044;-79
2020/12/26 09:36:46;;;;;;;30.35;6.38;;;4.60;99.90;;;;;;5053373;28;20029;-78
2020/12/26 09:39:12;;;;;;;22.75;6.32;;;4.60;99.90;;;;;;5065744;28;20438;-78
2020/12/26 09:41:46;;;;;;;42.53;8.85;;;4.50;99.90;;;;;;5070402;28;20027;-79
2020/12/26 09:44:12;;;;;;;;;;;4.60;99.90;;;;;;5054075;28;20028;-79
2020/12/26 09:46:38;;;;;;;37.75;7.10;;;4.50;99.90;;;;;;5061056;28;19957;-79
2020/12/26 09:49:04;;;;;;;45.55;6.93;;;4.50;99.90;;;;;;5070330;28;20029;-79
2020/12/26 09:51:30;;;;;;;26.58;6.55;;;4.50;99.90;;;;;;5055544;28;20047;-79
2020/12/26 09:53:56;;;;;;;35.53;7.53;;;4.50;99.90;;;;;;5066601;28;20025;-79
2020/12/26 09:56:21;;;;;;;40.90;7.00;;;4.60;99.90;;;;;;5053147;28;20036;-78
2020/12/26 09:58:48;;;;;;;36.10;7.55;;;4.50;99.90;;;;;;5049572;28;20064;-79
2020/12/26 10:01:21;;;;;;;33.70;6.80;;;4.50;99.90;;;;;;5061217;28;20032;-76
2020/12/26 10:03:48;;;;;;;42.63;8.90;;;4.60;99.90;;;;;;5049849;28;20485;-79
2020/12/26 10:06:15;;;;;;;32.47;7.20;;;4.60;99.90;;;;;;5065377;28;20044;-78
2020/12/26 10:08:44;;;;;;;47.08;8.38;;;4.60;99.90;;;;;;5053724;28;20028;-78
2020/12/26 10:11:14;;;;;;;28.63;8.52;;;4.70;99.90;;;;;;5050896;28;20029;-79
2020/12/26 10:13:41;;;;;;;43.63;7.72;;;4.80;99.90;;;;;;5050361;28;20416;-79
2020/12/26 10:16:07;;;;;;;32.50;7.85;;;4.80;99.90;;;;;;5062199;28;20103;-79
2020/12/26 10:18:33;;;;;;;28.23;6.40;;;4.80;99.90;;;;;;5049969;28;20021;-79
2020/12/26 10:20:58;;;;;;;31.90;7.40;;;4.90;99.90;;;;;;5063088;28;20036;-79
2020/12/26 10:23:24;;;;;;;35.40;8.50;;;4.90;99.90;;;;;;5056562;28;20115;-78
2020/12/26 10:25:50;;;;;;;33.03;7.28;;;5.00;99.90;;;;;;5061683;28;20365;-78
2020/12/26 10:28:17;;;;;;;42.45;7.43;;;5.00;99.90;;;;;;5056893;28;20477;-79
2020/12/26 10:30:43;;;;;;;31.08;5.90;;;5.00;99.90;;;;;;5055211;28;20492;-79
2020/12/26 10:33:08;;;;;;;33.45;7.32;;;5.00;99.90;;;;;;5071133;28;20385;-79
2020/12/26 10:35:34;;;;;;;36.63;6.43;;;5.00;99.90;;;;;;5061438;28;20032;-78
2020/12/26 10:38:00;;;;;;;26.48;6.35;;;5.00;99.90;;;;;;5051112;28;20104;-79
2020/12/26 10:40:25;;;;;;;43.53;7.90;;;5.00;99.90;;;;;;5050112;28;20135;-78
2020/12/26 10:42:51;;;;;;;28.13;7.53;;;5.00;99.90;;;;;;5051885;28;20020;-78
2020/12/26 10:45:16;;;;;;;42.13;5.43;;;5.00;99.90;;;;;;5062456;28;20036;-79
2020/12/26 10:47:42;;;;;;;37.78;6.07;;;5.10;99.90;;;;;;5056906;28;20366;-79
2020/12/26 10:50:07;;;;;;;24.92;5.68;;;5.10;99.90;;;;;;5059897;28;20032;-79
2020/12/26 10:52:33;;;;;;;38.33;7.68;;;5.10;99.90;;;;;;5061149;28;20089;-79
2020/12/26 10:54:59;;;;;;;33.78;5.20;;;5.10;99.90;;;;;;5055208;28;20408;-79
2020/12/26 10:57:25;;;;;;;31.27;6.30;;;5.10;99.90;;;;;;5054456;28;20397;-79
2020/12/26 10:59:50;;;;;;;41.50;5.32;;;5.10;99.90;;;;;;5056858;28;20028;-78
2020/12/26 11:02:17;;;;;;;36.30;5.78;;;5.10;99.90;;;;;;5056534;28;20036;-79
2020/12/26 11:04:42;;;;;;;29.75;6.05;;;5.10;99.90;;;;;;5055760;28;20032;-79
2020/12/26 11:07:08;;;;;;;35.38;6.20;;;5.10;99.90;;;;;;5064496;28;20025;-82
2020/12/26 11:09:34;;;;;;;33.25;6.07;;;5.00;99.90;;;;;;5063579;28;20087;-79
2020/12/26 11:12:00;;;;;;;28.88;5.20;;;5.10;99.90;;;;;;5053478;28;20119;-79
2020/12/26 11:14:25;;;;;;;29.95;5.32;;;5.00;99.90;;;;;;5056094;28;20064;-78
2020/12/26 11:16:53;;;;;;;41.45;6.47;;;5.00;99.90;;;;;;5062885;28;20028;-77
2020/12/26 11:19:19;;;;;;;45.72;6.85;;;5.00;99.90;;;;;;5054201;28;20028;-78
2020/12/26 11:21:49;;;;;;;34.42;6.15;;;5.00;99.90;;;;;;5052901;28;20040;-78
2020/12/26 11:24:15;;;;;;;32.45;6.07;;;5.00;99.90;;;;;;5055248;28;20025;-78
2020/12/26 11:26:40;;;;;;;38.53;6.95;;;5.00;99.90;;;;;;5053669;28;20503;-78
2020/12/26 11:29:06;;;;;;;29.00;6.70;;;5.10;99.90;;;;;;5063822;28;20029;-79
2020/12/26 11:31:32;;;;;;;31.35;6.82;;;5.10;99.90;;;;;;5070926;28;20542;-78
2020/12/26 11:33:57;;;;;;;51.65;7.65;;;5.20;99.90;;;;;;5070395;28;20063;-79
2020/12/26 11:36:28;;;;;;;46.08;8.38;;;5.20;99.90;;;;;;5060761;28;20016;-78
2020/12/26 11:38:55;;;;;;;24.35;6.85;;;5.10;99.90;;;;;;5063220;28;20028;-77
2020/12/26 11:41:28;;;;;;;36.15;6.85;;;5.10;99.90;;;;;;5073975;28;20023;-77
2020/12/26 11:43:55;;;;;;;41.63;6.72;;;5.20;99.90;;;;;;5055931;28;20017;-78
2020/12/26 11:46:20;;;;;;;34.75;6.18;;;5.10;99.90;;;;;;5058576;28;20033;-79
2020/12/26 11:48:46;;;;;;;31.60;6.40;;;5.10;99.90;;;;;;5068546;28;20082;-78
2020/12/26 11:51:12;;;;;;;34.13;6.80;;;5.10;99.90;;;;;;5059140;28;20063;-78
2020/12/26 11:53:38;;;;;;;22.48;7.00;;;5.10;99.90;;;;;;5064446;28;20043;-78
2020/12/26 11:56:14;;;;;;;40.45;7.03;;;5.10;99.90;;;;;;5073402;28;20032;-78
2020/12/26 11:58:41;;;;;;;23.27;5.68;;;5.20;99.90;;;;;;5055267;28;20029;-78
2020/12/26 12:01:08;;;;;;;40.13;6.35;;;5.20;99.90;;;;;;5058072;28;20017;-78
2020/12/26 12:03:34;;;;;;;37.60;6.72;;;5.20;99.90;;;;;;5055849;28;20020;-78
2020/12/26 12:06:00;;;;;;;30.23;5.38;;;5.20;99.90;;;;;;5067019;28;20029;-77
2020/12/26 12:08:26;;;;;;;22.38;5.75;;;5.20;99.90;;;;;;5061826;28;20032;-78
2020/12/26 12:10:52;;;;;;;29.88;7.88;;;5.30;99.90;;;;;;5056536;28;20393;-78
2020/12/26 12:13:18;;;;;;;28.95;5.70;;;5.20;99.90;;;;;;5053564;28;20035;-78
2020/12/26 12:15:43;;;;;;;28.23;5.65;;;5.30;99.90;;;;;;5052873;28;20543;-79
2020/12/26 12:18:09;;;;;;;47.03;6.18;;;5.30;99.90;;;;;;5063799;28;20097;-77
2020/12/26 12:20:35;;;;;;;33.40;5.32;;;5.30;99.90;;;;;;5067474;28;20029;-78
2020/12/26 12:23:01;;;;;;;44.67;7.30;;;5.30;99.90;;;;;;5065907;28;20025;-78
2020/12/26 12:25:28;;;;;;;31.45;6.60;;;5.30;99.90;;;;;;5055097;28;20029;-79
2020/12/26 12:27:55;;;;;;;35.30;6.50;;;5.30;99.90;;;;;;5067058;28;20028;-78
2020/12/26 12:30:23;;;;;;;26.77;5.07;;;5.40;99.90;;;;;;5062744;28;20036;-77
2020/12/26 12:32:48;;;;;;;37.75;5.35;;;5.30;99.90;;;;;;5052857;28;20025;-78
2020/12/26 12:35:15;;;;;;;32.20;5.78;;;5.40;99.90;;;;;;5069339;28;20492;-79
2020/12/26 12:37:43;;;;;;;33.38;4.82;;;5.30;99.90;;;;;;5059792;28;20087;-78
2020/12/26 12:40:09;;;;;;;22.00;5.43;;;5.30;99.90;;;;;;5072397;28;20027;-79
2020/12/26 12:42:35;;;;;;;25.30;5.75;;;5.20;99.90;;;;;;5066235;28;20100;-79
2020/12/26 12:45:00;;;;;;;37.40;5.70;;;5.30;99.90;;;;;;5060645;28;20025;-79
2020/12/26 12:47:27;;;;;;;29.17;6.43;;;5.20;99.90;;;;;;5067840;28;20558;-79
2020/12/26 12:49:53;;;;;;;25.38;5.70;;;5.30;99.90;;;;;;5058774;28;20021;-79